Time;durP1;ratioP1;P1;durP2;ratioP2;P2;SDS_P1;SDS_P2;PMS_P1;PMS_P2;Temp;Humidity;BMP_temperature;BMP_pressure;BME280_temperature;BME280_humidity;BME280_pressure;Samples;Min_cycle;Max_cycle;Signal;HPM_P1;HPM_P2
2022/06/16 07:14:09;;;;;;;13.75;4.80;;;27.40;46.90;;;25.68;60.01;95767.28;5005230;28;21212;-50
2022/06/16 07:16:41;;;;;;;9.27;4.85;;;27.20;49.90;;;26.00;58.91;95776.16;4988138;28;20033;-54
2022/06/16 07:19:09;;;;;;;;;;;27.90;50.30;;;26.13;56.00;95765.09;4960473;28;20028;-54
2022/06/16 07:21:41;;;;;;;10.25;4.90;;;28.50;48.70;;;26.38;56.69;95773.75;5027455;28;19909;-51
2022/06/16 07:24:10;;;;;;;12.75;4.65;;;29.20;48.20;;;26.64;56.35;95775.84;5012346;28;20034;-51
2022/06/16 07:26:36;;;;;;;14.65;5.45;;;29.80;47.60;;;26.91;52.29;95779.41;5005388;28;20048;-53
2022/06/16 07:29:06;;;;;;;13.38;5.07;;;30.40;46.40;;;27.19;56.66;95779.88;5004101;28;20018;-52
2022/06/16 07:31:31;;;;;;;8.82;4.82;;;30.90;46.30;;;27.38;51.98;95783.69;5005782;28;20035;-50
2022/06/16 07:34:00;;;;;;;12.02;4.82;;;31.30;45.30;;;27.62;51.09;95787.94;5007456;28;20025;-52
2022/06/16 07:36:26;;;;;;;15.32;5.10;;;31.70;44.50;;;27.83;52.11;95788.28;4974009;28;23947;-51
2022/06/16 07:38:54;;;;;;;14.30;5.55;;;32.10;44.20;;;27.84;50.27;95778.88;4979875;28;30641;-54
2022/06/16 07:41:31;;;;;;;11.15;4.72;;;32.50;43.30;;;28.12;51.05;95778.44;5017796;28;20033;-51
2022/06/16 07:44:18;;;;;;;11.70;5.63;;;32.70;42.80;;;28.24;51.27;95785.63;5007335;28;20112;-49
2022/06/16 07:46:50;;;;;;;15.80;5.38;;;33.00;42.40;;;28.06;51.50;95785.41;5008617;28;20496;-55
2022/06/16 07:49:25;;;;;;;10.93;5.32;;;33.30;41.70;;;28.29;51.33;95789.97;5004625;28;20029;-56
2022/06/16 07:51:54;;;;;;;20.65;6.32;;;33.50;41.50;;;28.24;50.94;95788.38;5005160;28;20033;-52
2022/06/16 07:54:23;;;;;;;14.15;5.90;;;33.70;41.10;;;28.56;51.34;95788.75;5008578;28;20029;-55
2022/06/16 07:56:50;;;;;;;9.07;5.20;;;33.90;40.90;;;28.55;49.62;95787.19;5005516;28;20174;-49
2022/06/16 07:59:16;;;;;;;12.77;5.82;;;34.10;40.30;;;28.65;49.88;95784.94;5007304;28;20036;-49
2022/06/16 08:01:42;;;;;;;7.75;5.18;;;34.20;40.10;;;28.90;49.83;95783.19;5005235;28;20265;-51
2022/06/16 08:04:08;;;;;;;10.90;5.75;;;34.40;39.90;;;28.92;50.88;95786.34;5005426;28;20022;-50
2022/06/16 08:06:38;;;;;;;9.98;5.47;;;34.50;39.80;;;29.29;48.58;95789.00;5023122;28;20075;-52
2022/06/16 08:09:13;;;;;;;12.32;6.18;;;34.70;39.60;;;29.57;48.47;95795.09;5005765;28;20380;-54
2022/06/16 08:14:26;;;;;;;12.48;5.70;;;35.20;38.60;;;28.98;47.47;95793.03;5008611;28;20511;-52
2022/06/16 08:16:53;;;;;;;8.05;6.00;;;35.30;38.00;;;29.12;48.83;95797.91;5006002;28;20346;-52
2022/06/16 08:19:22;;;;;;;11.65;6.90;;;35.40;37.90;;;29.44;46.42;95800.88;5009050;28;20496;-55
2022/06/16 08:21:50;;;;;;;14.63;6.43;;;35.50;37.60;;;29.95;45.93;95802.00;5006528;28;20388;-54
2022/06/16 08:24:17;;;;;;;11.45;6.10;;;35.70;37.70;;;29.86;46.95;95804.31;5000628;28;20033;-55
2022/06/16 08:26:45;;;;;;;11.75;5.72;;;35.80;37.00;;;29.95;44.25;95807.47;4994298;28;20112;-50
2022/06/16 08:29:19;;;;;;;15.40;6.82;;;36.00;36.90;;;30.07;45.80;95809.91;4991778;28;20072;-52
2022/06/16 08:31:45;;;;;;;16.40;6.53;;;36.20;36.50;;;30.36;44.49;95815.53;5007689;28;20072;-51
2022/06/16 08:34:12;;;;;;;10.05;6.50;;;36.40;36.40;;;29.86;44.94;95815.28;4978389;28;20036;-53
2022/06/16 08:36:41;;;;;;;12.30;6.43;;;36.50;35.80;;;29.84;47.11;95806.66;4994786;28;20523;-52
2022/06/16 08:39:23;;;;;;;11.85;6.35;;;36.60;35.60;;;30.43;45.22;95812.84;4994299;28;20073;-54
2022/06/16 08:42:32;;;;;;;14.68;6.88;;;36.70;35.60;;;30.74;46.07;95816.81;4994527;28;20021;-54
2022/06/16 08:45:51;;;;;;;17.38;6.47;;;36.90;35.40;;;31.00;44.03;95820.44;4993314;28;20029;-54
2022/06/16 08:48:45;;;;;;;12.95;6.55;;;37.20;35.40;;;30.92;43.85;95830.63;4988127;28;20022;-51
2022/06/16 08:52:07;;;;;;;12.98;6.22;;;37.30;34.70;;;31.04;42.67;95824.75;4993205;28;20084;-50
2022/06/16 08:55:15;;;;;;;13.98;7.20;;;37.50;34.60;;;31.00;42.05;95832.22;4953327;28;20403;-52
2022/06/16 08:58:28;;;;;;;14.45;6.43;;;37.70;34.30;;;31.38;43.83;95835.41;4992082;28;20033;-53
2022/06/16 09:01:12;;;;;;;10.15;6.28;;;37.80;33.80;;;31.49;41.59;95836.19;4989114;28;20075;-51
2022/06/16 09:04:17;;;;;;;11.43;6.20;;;38.00;33.40;;;31.19;41.74;95833.03;4988689;28;20453;-49
2022/06/16 09:08:07;;;;;;;11.75;7.00;;;38.10;33.00;;;31.72;42.12;95840.50;4994141;28;20018;-54
2022/06/16 09:11:03;;;;;;;9.18;6.43;;;38.20;33.00;;;31.51;39.23;95835.78;4933686;29;20121;-51
2022/06/16 09:14:14;;;;;;;7.70;6.07;;;38.40;32.60;;;31.61;40.42;95837.75;4918563;29;20142;-49
2022/06/16 09:17:12;;;;;;;10.57;6.60;;;38.50;32.50;;;31.77;40.50;95840.88;4965413;28;20054;-51
2022/06/16 09:20:25;;;;;;;14.32;6.40;;;38.40;32.20;;;31.98;39.49;95847.56;4999504;23;20057;-49
2022/06/16 09:24:02;;;;;;;15.30;6.88;;;38.60;32.30;;;32.22;40.74;95843.94;4991495;28;20038;-51
2022/06/16 09:26:42;;;;;;;11.52;7.10;;;38.70;32.00;;;32.17;39.26;95847.09;5004516;28;20124;-50
2022/06/16 09:29:57;;;;;;;8.80;6.35;;;38.90;31.40;;;32.23;38.49;95841.97;5008585;28;20021;-47
2022/06/16 09:32:54;;;;;;;9.63;6.32;;;39.00;31.30;;;32.69;38.13;95854.81;4974812;28;20041;-48
2022/06/16 09:35:42;;;;;;;8.57;5.68;;;39.20;30.80;;;32.77;37.43;95859.06;4974314;28;20055;-47
2022/06/16 09:38:43;;;;;;;12.85;6.90;;;39.30;30.50;;;33.04;37.32;95853.81;4974715;28;20120;-49
2022/06/16 09:44:41;;;;;;;7.88;5.68;;;39.60;30.40;;;33.78;35.96;95851.66;4991003;28;20036;-50
2022/06/16 09:47:26;;;;;;;11.95;6.50;;;39.80;30.00;;;33.67;35.41;95862.03;4991202;28;20026;-50
2022/06/16 09:50:19;;;;;;;9.23;6.78;;;40.00;29.90;;;33.70;35.14;95854.91;4990981;28;20521;-47
2022/06/16 09:53:14;;;;;;;8.55;6.32;;;40.10;29.60;;;33.92;36.51;95859.03;4990741;28;20034;-48
2022/06/16 09:56:05;;;;;;;6.93;6.10;;;40.20;29.50;;;34.36;34.27;95867.69;4990880;28;20421;-50
2022/06/16 09:58:54;;;;;;;11.88;6.18;;;40.50;29.70;;;34.64;33.90;95852.75;4990877;28;20084;-49
2022/06/16 10:01:28;;;;;;;10.90;6.80;;;40.60;29.50;;;34.70;33.77;95856.63;4990906;28;20021;-49
2022/06/16 10:04:00;;;;;;;11.40;6.15;;;40.80;29.10;;;33.98;35.46;95857.41;5005179;28;20053;-48
2022/06/16 10:07:15;;;;;;;9.75;7.28;;;40.80;28.80;;;33.65;35.82;95858.88;4992923;28;20052;-51
2022/06/16 10:10:15;;;;;;;9.90;6.60;;;40.70;28.70;;;33.45;35.75;95855.09;4992876;28;20022;-48
2022/06/16 10:13:48;;;;;;;11.57;6.60;;;40.70;28.50;;;33.62;35.65;95857.72;4991815;28;20025;-48
2022/06/16 10:16:32;;;;;;;7.68;6.65;;;40.60;28.20;;;33.48;35.31;95854.28;4990466;28;20514;-50
2022/06/16 10:19:10;;;;;;;10.15;6.28;;;40.70;28.00;;;33.75;34.58;95849.75;4991207;28;20068;-47
2022/06/16 10:21:39;;;;;;;9.20;6.38;;;40.70;27.80;;;33.53;34.60;95849.16;4991517;28;20418;-50
2022/06/16 10:24:08;;;;;;;12.70;5.82;;;40.90;27.40;;;33.78;34.39;95850.88;4991395;28;20021;-47
2022/06/16 10:26:35;;;;;;;9.70;5.90;;;40.90;27.40;;;33.78;33.50;95846.13;4991285;28;20018;-48
2022/06/16 10:29:33;;;;;;;11.25;5.90;;;41.00;27.10;;;33.94;33.39;95858.63;4971915;28;20057;-47
2022/06/16 10:32:16;;;;;;;8.02;6.30;;;41.00;27.20;;;34.05;33.66;95851.81;4995513;28;22370;-50
2022/06/16 10:34:42;;;;;;;8.40;5.00;;;41.10;27.00;;;34.70;30.73;95854.63;4991350;28;20113;-52
2022/06/16 10:37:26;;;;;;;7.28;5.07;;;41.30;26.60;;;35.24;28.64;95862.19;4975159;28;20117;-52
2022/06/16 10:40:28;;;;;;;10.85;5.65;;;41.50;26.30;;;35.05;29.67;95851.81;4992529;28;20156;-51
2022/06/16 10:43:16;;;;;;;6.78;5.05;;;41.80;25.80;;;35.06;29.14;95856.91;4990593;28;20041;-50
2022/06/16 10:46:13;;;;;;;8.85;5.07;;;42.00;25.40;;;34.71;27.30;95858.19;4991413;28;20053;-49
2022/06/16 10:48:53;;;;;;;7.45;4.68;;;42.10;24.90;;;35.05;28.14;95846.28;4990948;28;20500;-50
2022/06/16 10:51:27;;;;;;;6.20;4.70;;;42.10;24.80;;;35.04;28.09;95842.72;4991270;28;20030;-48
2022/06/16 10:54:39;;;;;;;9.65;5.07;;;42.20;24.70;;;34.54;28.69;95841.41;4992255;28;20045;-50
2022/06/16 10:57:25;;;;;;;7.22;5.00;;;42.00;24.50;;;34.51;26.27;95842.19;4978163;28;20420;-50
2022/06/16 11:00:21;;;;;;;8.18;4.78;;;42.00;24.00;;;34.50;27.28;95846.16;4990834;28;20034;-50
2022/06/16 11:03:06;;;;;;;8.48;4.40;;;42.00;23.80;;;34.53;27.45;95852.88;4992276;28;20508;-50
2022/06/16 11:05:59;;;;;;;7.20;4.70;;;42.00;23.50;;;34.23;27.00;95854.38;4991042;28;20163;-48
2022/06/16 11:08:58;;;;;;;7.32;5.50;;;41.90;23.30;;;34.93;25.63;95847.59;4990963;28;20055;-49
2022/06/16 11:11:42;;;;;;;7.47;4.30;;;41.90;23.30;;;34.18;25.12;95851.28;4992142;28;20361;-49
2022/06/16 11:14:45;;;;;;;7.03;4.45;;;42.00;22.60;;;34.13;25.30;95849.78;4992147;28;20124;-48
2022/06/16 11:17:41;;;;;;;6.55;4.47;;;41.90;22.00;;;33.98;24.54;95848.31;4975062;28;20044;-48
2022/06/16 11:20:43;;;;;;;6.32;5.10;;;41.90;21.80;;;34.21;24.51;95858.75;4992230;28;20472;-51
2022/06/16 11:23:21;;;;;;;7.53;4.15;;;41.80;21.80;;;34.33;26.23;95857.44;4990821;28;20025;-49
2022/06/16 11:26:06;;;;;;;4.65;4.20;;;41.80;21.90;;;34.51;26.10;95858.00;4991774;28;20507;-54
2022/06/16 11:28:53;;;;;;;4.65;4.22;;;41.70;22.10;;;34.88;25.59;95845.28;4991747;28;20045;-53
2022/06/16 11:32:10;;;;;;;10.48;4.82;;;41.80;22.30;;;34.30;26.41;95856.28;4974743;28;20038;-53
2022/06/16 11:34:42;;;;;;;5.15;4.70;;;41.90;22.00;;;34.02;25.83;95855.41;4990579;28;20042;-48
2022/06/16 11:38:00;;;;;;;7.20;4.22;;;41.90;21.80;;;34.49;25.50;95841.81;4992009;28;20025;-49
2022/06/16 11:41:02;;;;;;;7.78;4.85;;;41.80;22.00;;;35.17;25.53;95852.00;4966045;28;20090;-48
2022/06/16 11:44:02;;;;;;;6.85;4.82;;;42.00;22.10;;;34.53;25.15;95844.56;4986162;28;20113;-47
2022/06/16 11:47:01;;;;;;;5.25;4.75;;;42.20;21.80;;;34.68;24.75;95859.00;4990456;28;20030;-47
2022/06/16 11:50:15;;;;;;;6.00;5.03;;;42.10;21.70;;;34.08;25.40;95858.50;4988642;28;20029;-48
2022/06/16 11:53:18;;;;;;;7.38;4.63;;;42.10;21.30;;;34.15;24.67;95858.41;4989372;28;20064;-51
2022/06/16 11:57:02;;;;;;;7.63;4.68;;;42.00;21.30;;;34.42;24.72;95855.75;5005978;28;20049;-48
2022/06/16 11:59:59;;;;;;;6.18;4.72;;;42.00;21.40;;;34.49;24.56;95860.41;4992789;28;20135;-48
2022/06/16 12:03:13;;;;;;;5.22;4.68;;;42.00;21.30;;;34.84;23.76;95859.16;4994681;28;20033;-52
2022/06/16 12:06:28;;;;;;;6.45;4.68;;;42.10;21.20;;;34.97;24.75;95864.91;4994438;28;20396;-49
2022/06/16 12:09:41;;;;;;;7.50;4.82;;;42.10;21.20;;;35.35;23.38;95860.06;5008010;28;20100;-47
2022/06/16 12:12:49;;;;;;;7.78;5.15;;;42.30;21.10;;;35.13;23.14;95851.28;4986908;28;20037;-51
2022/06/16 12:16:14;;;;;;;7.70;5.03;;;42.50;21.00;;;35.65;24.08;95859.16;4978971;28;20037;-50
2022/06/16 12:19:07;;;;;;;5.93;5.00;;;42.60;21.10;;;35.75;22.66;95856.63;4993144;28;20468;-49
2022/06/16 12:21:46;;;;;;;6.07;4.88;;;42.80;20.90;;;35.75;22.26;95845.56;4994387;28;20092;-48
2022/06/16 12:24:30;;;;;;;8.73;4.75;;;43.00;20.70;;;35.90;22.09;95850.41;4989853;28;20109;-47
2022/06/16 12:27:14;;;;;;;7.30;5.03;;;43.10;20.40;;;35.67;22.60;95856.00;5009215;28;20079;-49
2022/06/16 12:30:14;;;;;;;9.35;5.15;;;43.20;20.30;;;35.42;23.12;95848.84;4993560;28;20117;-49
2022/06/16 12:33:24;;;;;;;5.85;5.43;;;43.30;20.20;;;36.13;23.04;95849.63;4993281;28;20550;-53
2022/06/16 12:36:06;;;;;;;7.55;5.82;;;43.20;20.30;;;35.71;22.36;95834.53;4993490;28;20039;-49
2022/06/16 12:38:56;;;;;;;7.28;5.05;;;43.50;20.20;;;35.42;23.18;95837.00;4994568;28;20054;-48
2022/06/16 12:41:37;;;;;;;8.18;5.45;;;43.40;19.90;;;35.35;23.05;95848.16;4991118;28;20026;-51
2022/06/16 12:47:47;;;;;;;7.68;5.75;;;43.30;20.10;;;35.66;23.07;95846.91;4994291;28;20471;-48
2022/06/16 12:50:35;;;;;;;7.18;5.85;;;43.30;20.10;;;35.90;23.02;95835.78;4993312;28;20030;-49
2022/06/16 12:53:44;;;;;;;9.27;6.32;;;43.30;20.20;;;35.50;23.32;95834.88;4993115;28;20030;-50
2022/06/16 12:57:01;;;;;;;8.73;5.43;;;43.30;20.20;;;35.60;23.67;95839.47;4993141;28;20018;-51
2022/06/16 13:00:00;;;;;;;7.93;5.57;;;43.30;20.30;;;35.80;23.29;95825.69;4991621;28;20033;-48
2022/06/16 13:03:12;;;;;;;8.60;5.13;;;43.40;20.30;;;35.78;24.22;95833.63;4976854;28;20025;-48
2022/06/16 13:05:51;;;;;;;6.88;6.18;;;43.50;20.40;;;35.83;23.37;95835.91;4999232;28;20136;-50
2022/06/16 13:08:30;;;;;;;7.65;5.35;;;43.50;20.50;;;35.68;24.58;95841.72;5009260;28;20018;-50
2022/06/16 13:11:26;;;;;;;7.57;5.50;;;43.50;20.40;;;36.11;23.73;95840.19;4993815;28;20535;-48
2022/06/16 13:14:06;;;;;;;8.15;5.50;;;43.50;20.40;;;36.11;23.44;95835.41;4992857;28;20053;-51
2022/06/16 13:16:41;;;;;;;5.65;5.15;;;43.60;20.20;;;35.98;23.05;95834.44;4992771;28;20071;-51
2022/06/16 13:19:18;;;;;;;7.35;5.25;;;43.70;20.20;;;36.08;23.20;95839.03;4992052;28;20478;-49
2022/06/16 13:22:17;;;;;;;8.48;5.10;;;43.80;20.20;;;36.28;22.79;95836.25;4992442;28;20034;-48
2022/06/16 13:24:58;;;;;;;12.35;5.45;;;43.80;20.20;;;36.55;22.33;95829.81;4992569;28;20030;-49
2022/06/16 13:27:39;;;;;;;9.32;5.43;;;44.00;20.00;;;36.39;22.21;95833.28;4992405;28;20048;-50
2022/06/16 13:30:10;;;;;;;9.30;6.43;;;44.20;19.80;;;36.72;22.64;95836.19;4993646;28;20033;-50
2022/06/16 13:33:17;;;;;;;6.20;5.60;;;44.40;19.80;;;36.62;21.14;95823.34;4993531;28;20030;-51
2022/06/16 13:36:07;;;;;;;6.20;5.35;;;44.60;19.60;;;37.16;21.70;95826.47;4993371;28;20018;-52
2022/06/16 13:38:43;;;;;;;6.53;5.43;;;44.70;19.50;;;36.77;21.06;95822.59;4992446;28;20433;-50
2022/06/16 13:42:00;;;;;;;9.07;5.43;;;45.00;19.30;;;36.91;21.63;95829.78;4992260;28;20113;-51
2022/06/16 13:44:29;;;;;;;6.68;6.07;;;45.20;19.10;;;37.27;21.73;95829.00;4992252;28;20022;-48
2022/06/16 13:47:03;;;;;;;9.07;5.95;;;45.40;19.10;;;37.18;22.78;95832.38;4992179;28;20020;-51
2022/06/16 13:49:56;;;;;;;10.90;6.05;;;45.60;19.20;;;37.61;22.07;95831.38;4993313;28;20037;-49
2022/06/16 13:53:17;;;;;;;6.97;5.97;;;45.80;19.20;;;37.74;20.97;95831.44;4993002;28;20029;-51
2022/06/16 13:56:08;;;;;;;9.80;6.00;;;46.10;19.20;;;37.74;20.94;95825.88;4992535;28;20388;-50
2022/06/16 13:58:52;;;;;;;7.88;6.63;;;46.30;18.80;;;37.41;20.96;95827.88;4975869;28;20412;-50
2022/06/16 14:01:31;;;;;;;7.80;7.20;;;46.50;18.60;;;37.24;21.71;95832.66;4993214;28;20451;-50
2022/06/16 14:04:16;;;;;;;8.65;6.45;;;46.60;18.30;;;37.56;20.26;95829.09;4991886;28;20044;-53
2022/06/16 14:07:13;;;;;;;8.60;6.63;;;46.70;18.00;;;37.56;21.01;95826.31;4991568;28;20021;-49
2022/06/16 14:10:27;;;;;;;7.43;6.05;;;46.90;18.10;;;37.90;18.92;95811.94;4992585;28;20034;-53
2022/06/16 14:13:11;;;;;;;7.30;5.95;;;47.10;17.70;;;37.05;20.08;95810.09;4991871;28;20053;-48
2022/06/16 14:16:17;;;;;;;7.75;6.38;;;47.30;17.40;;;37.09;19.68;95810.00;4991503;28;20500;-48
2022/06/16 14:19:01;;;;;;;8.57;7.00;;;47.30;17.30;;;36.28;20.99;95804.97;4991490;28;20170;-48
2022/06/16 14:21:44;;;;;;;9.40;6.72;;;47.40;17.10;;;36.96;21.71;95820.97;4992043;28;20037;-49
2022/06/16 14:25:19;;;;;;;7.10;6.25;;;47.40;17.20;;;37.62;20.58;95805.13;4991288;28;20119;-49
2022/06/16 14:28:12;;;;;;;7.05;6.38;;;47.50;17.20;;;38.04;20.18;95807.22;4983505;28;20038;-48
2022/06/16 14:30:58;;;;;;;8.38;7.60;;;47.90;17.70;;;37.50;20.82;95809.41;4991403;28;20116;-48
2022/06/16 14:34:14;;;;;;;8.80;8.00;;;48.10;17.10;;;37.57;21.02;95811.22;5007315;28;20116;-50
2022/06/16 14:37:04;;;;;;;8.35;7.20;;;48.20;17.10;;;38.42;20.25;95827.63;4991271;28;20025;-54
2022/06/16 14:40:04;;;;;;;10.75;7.25;;;48.50;17.10;;;38.75;19.46;95816.31;4980156;28;20026;-53
2022/06/16 14:42:37;;;;;;;7.80;7.20;;;49.00;16.90;;;39.25;19.21;95825.16;4971933;28;20029;-53
2022/06/16 14:45:35;;;;;;;9.38;8.45;;;49.50;16.70;;;38.66;19.27;95819.00;4976768;28;20029;-55
2022/06/16 14:48:22;;;;;;;9.15;8.02;;;49.90;16.50;;;38.73;19.74;95820.78;4976118;28;20026;-53
2022/06/16 14:51:26;;;;;;;8.70;7.80;;;50.20;16.20;;;38.60;18.99;95823.53;4997126;28;20037;-50
2022/06/16 14:54:29;;;;;;;9.57;8.77;;;50.60;16.00;;;38.72;19.63;95825.56;4981213;28;20393;-49
2022/06/16 14:56:58;;;;;;;9.85;9.00;;;50.90;15.90;;;39.41;19.58;95825.03;4980638;28;20453;-50
2022/06/16 14:59:38;;;;;;;10.13;8.93;;;51.30;15.80;;;39.17;19.21;95823.81;4986933;28;20030;-49
2022/06/16 15:02:10;;;;;;;10.32;9.63;;;51.70;15.60;;;39.16;19.41;95820.25;4986898;28;20116;-48
2022/06/16 15:04:38;;;;;;;10.60;9.73;;;52.00;15.30;;;39.68;19.12;95823.78;4986979;28;20033;-50
2022/06/16 15:07:05;;;;;;;10.10;8.85;;;52.20;15.30;;;39.44;19.16;95806.66;4973487;28;20332;-50
2022/06/16 15:09:40;;;;;;;11.98;10.57;;;52.50;15.20;;;39.41;19.89;95808.31;4987681;28;20032;-49
2022/06/16 15:12:09;;;;;;;10.10;9.10;;;52.90;15.10;;;39.28;19.67;95810.38;4977181;28;20034;-52
2022/06/16 15:14:43;;;;;;;10.60;9.73;;;53.00;14.80;;;39.31;19.91;95810.25;4975902;28;20029;-50
2022/06/16 15:20:15;;;;;;;10.30;9.38;;;53.50;14.60;;;39.09;19.79;95798.22;4990415;28;20073;-52
2022/06/16 15:22:54;;;;;;;10.88;9.55;;;53.60;14.50;;;39.53;20.00;95801.19;4974610;28;20116;-50
2022/06/16 15:25:53;;;;;;;12.43;11.35;;;54.00;14.60;;;38.96;19.47;95800.22;4990570;28;20121;-49
2022/06/16 15:28:33;;;;;;;11.80;10.75;;;54.50;14.30;;;39.38;19.86;95806.44;4988003;28;20088;-56
2022/06/16 15:31:30;;;;;;;12.73;11.73;;;54.90;14.10;;;39.78;18.47;95798.34;4985680;28;20030;-50
2022/06/16 15:37:05;;;;;;;15.52;14.52;;;56.00;13.70;;;40.55;18.31;95786.78;4981308;28;20417;-49
2022/06/16 15:39:41;;;;;;;16.73;15.30;;;56.60;13.30;;;40.32;18.57;95787.28;4988741;28;20034;-50
2022/06/16 15:42:22;;;;;;;19.70;18.10;;;57.00;13.10;;;40.47;18.57;95800.25;4985003;28;20034;-49
2022/06/16 15:44:58;;;;;;;17.88;16.67;;;57.40;13.10;;;40.50;18.55;95792.22;4990285;28;20478;-49
2022/06/16 15:47:37;;;;;;;11.50;10.55;;;57.40;13.00;;;40.16;18.86;95789.03;4974589;28;20026;-50
2022/06/16 15:50:18;;;;;;;13.93;12.73;;;55.40;13.50;;;40.52;18.94;95786.94;4982015;28;20463;-49
2022/06/16 15:52:55;;;;;;;14.55;13.25;;;55.40;13.60;;;40.73;18.66;95782.56;5004828;28;20024;-49
2022/06/16 15:55:45;;;;;;;16.70;15.50;;;56.00;13.50;;;41.04;18.02;95774.19;4957745;28;20127;-51
2022/06/16 15:58:26;;;;;;;14.88;13.60;;;56.60;13.30;;;40.81;18.54;95778.28;4989468;28;20029;-49
2022/06/16 16:00:57;;;;;;;16.83;15.50;;;57.20;13.10;;;40.30;19.22;95776.56;4981086;28;20556;-54
2022/06/16 16:03:29;;;;;;;16.38;15.07;;;57.30;12.90;;;40.05;19.86;95779.47;4978958;28;20401;-51
2022/06/16 16:05:57;;;;;;;16.55;15.30;;;57.30;12.90;;;40.11;19.05;95778.44;4980499;28;20025;-54
2022/06/16 16:08:33;;;;;;;14.80;13.57;;;57.30;12.80;;;39.80;19.55;95781.16;4982280;28;20507;-51
2022/06/16 16:11:25;;;;;;;14.00;12.70;;;57.20;12.60;;;40.77;18.51;95786.00;4976982;28;20080;-52
2022/06/16 16:14:07;;;;;;;14.90;13.77;;;57.20;13.20;;;40.92;18.24;95782.19;4993012;28;20103;-53
2022/06/16 16:16:50;;;;;;;15.32;13.98;;;57.40;12.70;;;40.70;19.18;95787.84;4992747;28;20071;-52
2022/06/16 16:19:16;;;;;;;16.90;15.63;;;57.50;12.60;;;40.40;18.91;95781.00;4978240;28;20048;-51
2022/06/16 16:21:57;;;;;;;15.85;14.85;;;57.60;12.50;;;40.40;18.72;95786.56;4992642;28;20025;-50
2022/06/16 16:24:36;;;;;;;16.23;14.95;;;57.60;12.60;;;40.46;19.23;95784.75;4982735;28;20489;-53
2022/06/16 16:27:10;;;;;;;15.50;14.30;;;57.60;12.50;;;40.48;19.40;95792.66;4982373;28;20079;-53
2022/06/16 16:29:37;;;;;;;16.45;15.35;;;57.50;12.50;;;40.48;18.67;95798.22;4982349;28;20044;-54
2022/06/16 16:32:08;;;;;;;15.55;14.27;;;57.50;12.50;;;40.07;18.94;95800.09;4988968;28;20112;-50
2022/06/16 16:34:48;;;;;;;16.75;15.32;;;57.40;12.40;;;39.89;19.21;95792.38;4986336;28;20026;-49
2022/06/16 16:37:20;;;;;;;16.13;14.77;;;57.30;12.50;;;39.99;18.87;95802.38;4982699;28;20029;-52
2022/06/16 16:43:50;;;;;;;16.58;15.27;;;57.40;12.40;;;40.22;19.24;95797.63;4982747;28;20032;-50
2022/06/16 16:46:20;;;;;;;15.68;14.48;;;57.40;12.40;;;40.20;18.48;95802.84;4982176;28;20767;-50
2022/06/16 16:48:53;;;;;;;14.98;13.68;;;57.50;12.30;;;40.18;19.27;95794.97;4972006;28;20507;-52
2022/06/16 16:51:21;;;;;;;12.55;11.40;;;57.60;12.30;;;39.44;19.85;95807.44;4988824;28;20064;-53
2022/06/16 16:53:55;;;;;;;16.27;14.68;;;57.50;12.20;;;39.67;19.62;95803.47;4975347;28;20099;-54
2022/06/16 16:56:27;;;;;;;13.18;12.13;;;57.40;12.30;;;39.60;19.61;95800.16;4988296;28;20036;-50
2022/06/16 16:59:25;;;;;;;13.27;12.25;;;57.30;12.30;;;39.56;19.90;95808.63;4983625;28;20029;-49
2022/06/16 17:01:51;;;;;;;13.02;11.77;;;57.30;12.40;;;39.29;20.45;95809.91;4990275;28;20022;-53
2022/06/16 17:04:26;;;;;;;12.10;11.07;;;57.20;12.40;;;39.16;20.54;95813.91;4987572;28;20480;-49
2022/06/16 17:06:54;;;;;;;12.88;11.20;;;57.10;12.50;;;38.57;21.01;95814.06;4991100;28;20029;-49
2022/06/16 17:09:23;;;;;;;9.02;8.32;;;56.70;12.40;;;38.03;21.95;95809.25;4991149;28;20053;-49
2022/06/16 17:11:51;;;;;;;8.25;7.45;;;56.30;12.60;;;36.97;22.56;95808.66;4975925;28;20487;-49
2022/06/16 17:14:36;;;;;;;10.05;6.03;;;55.10;12.60;;;36.65;23.09;95814.16;4987591;28;20056;-49
2022/06/16 17:17:12;;;;;;;7.60;5.55;;;52.90;13.30;;;36.04;24.13;95809.81;4990921;28;20034;-49
2022/06/16 17:19:47;;;;;;;6.57;5.13;;;50.00;14.50;;;35.33;24.89;95818.16;4960171;28;23223;-48
2022/06/16 17:22:14;;;;;;;6.00;4.45;;;47.50;15.70;;;34.91;25.67;95819.56;4993694;28;20393;-50
2022/06/16 17:24:41;;;;;;;8.90;4.93;;;45.40;16.80;;;34.28;26.30;95825.50;4992294;28;20041;-49
2022/06/16 17:27:10;;;;;;;6.63;4.93;;;43.70;17.80;;;33.78;27.35;95821.28;5004624;28;20033;-47
2022/06/16 17:29:47;;;;;;;7.22;4.32;;;42.30;18.80;;;33.29;28.23;95817.00;4992431;28;20030;-48
2022/06/16 17:32:20;;;;;;;8.77;4.85;;;41.10;19.80;;;32.89;28.87;95825.50;4993557;28;20416;-47
2022/06/16 17:35:01;;;;;;;7.25;4.70;;;40.00;20.60;;;32.49;29.14;95824.16;4992344;28;20124;-48
2022/06/16 17:37:40;;;;;;;6.57;4.63;;;39.10;21.30;;;32.17;29.77;95821.53;4993662;28;20025;-50
2022/06/16 17:40:24;;;;;;;6.13;4.07;;;38.20;22.00;;;31.86;30.15;95823.94;5008632;28;20028;-47
2022/06/16 17:42:57;;;;;;;7.75;4.38;;;37.60;22.60;;;31.64;31.00;95825.16;4976105;28;20034;-49
2022/06/16 17:45:26;;;;;;;7.93;3.92;;;37.00;23.20;;;31.34;31.34;95818.91;4993561;28;20045;-53
2022/06/16 17:47:53;;;;;;;5.13;4.40;;;36.50;23.70;;;31.11;32.06;95826.72;4993452;28;20029;-51
2022/06/16 17:50:25;;;;;;;6.00;4.25;;;36.00;24.10;;;30.83;32.49;95828.25;4991945;28;20026;-49
2022/06/16 18:01:21;;;;;;;6.57;4.30;;;34.60;26.00;;;30.07;33.71;95842.84;4991976;28;20036;-47
2022/06/16 18:03:53;;;;;;;11.90;4.20;;;34.20;26.20;;;29.89;34.67;95833.72;5006449;28;20037;-48
2022/06/16 18:06:19;;;;;;;8.63;4.00;;;34.00;26.70;;;29.72;34.64;95835.22;4991634;28;20033;-48
2022/06/16 18:08:57;;;;;;;8.60;4.00;;;33.70;26.90;;;29.53;34.91;95844.47;5008278;28;20022;-48
2022/06/16 18:11:29;;;;;;;6.78;4.30;;;33.50;27.50;;;29.37;35.69;95841.22;4993072;28;20493;-50
2022/06/16 18:14:00;;;;;;;6.72;3.88;;;33.30;27.70;;;29.17;35.53;95846.91;4975510;28;20112;-50
2022/06/16 18:16:26;;;;;;;5.60;4.07;;;33.10;27.80;;;28.99;35.71;95849.47;4991615;28;20113;-51
2022/06/16 18:18:54;;;;;;;5.22;4.07;;;32.90;27.90;;;28.93;35.98;95855.69;4991282;28;20021;-47
2022/06/16 18:21:33;;;;;;;7.93;4.57;;;32.80;28.30;;;28.82;36.72;95859.09;4992906;28;20112;-50
2022/06/16 18:24:27;;;;;;;11.48;4.00;;;32.70;28.70;;;28.65;36.62;95854.22;4991433;28;20033;-48
2022/06/16 18:27:06;;;;;;;6.03;4.10;;;32.50;28.80;;;28.31;40.08;95856.91;4990111;28;20013;-50
2022/06/16 18:29:40;;;;;;;6.10;4.05;;;32.40;29.60;;;28.03;41.03;95854.59;4918054;28;21380;-52
2022/06/16 18:32:09;;;;;;;4.38;3.80;;;32.20;30.10;;;27.80;41.41;95854.69;4960153;28;22119;-49
2022/06/16 18:34:35;;;;;;;6.43;3.80;;;32.00;30.40;;;27.65;41.10;95856.38;4991433;28;20064;-47
2022/06/16 18:37:03;;;;;;;6.60;4.20;;;31.80;30.60;;;27.35;41.05;95859.03;4991512;28;20053;-49
2022/06/16 18:39:30;;;;;;;6.05;3.80;;;31.60;30.80;;;27.14;44.63;95854.03;4990189;28;20032;-47
2022/06/16 18:42:04;;;;;;;8.20;4.18;;;31.40;31.80;;;26.84;42.93;95858.53;4991321;28;20014;-49
2022/06/16 18:44:30;;;;;;;10.75;4.15;;;31.10;32.20;;;26.61;42.84;95856.56;4990305;28;20109;-48
2022/06/16 18:47:17;;;;;;;4.90;3.88;;;30.90;32.20;;;26.46;44.78;95857.41;4953330;28;24859;-47
2022/06/16 18:49:50;;;;;;;7.53;3.95;;;30.60;33.00;;;26.18;44.61;95861.13;4986432;28;20036;-51
2022/06/16 18:52:26;;;;;;;5.20;4.25;;;30.30;33.90;;;26.02;44.44;95868.59;4990005;28;20034;-46
2022/06/16 18:54:55;;;;;;;4.80;3.67;;;30.10;33.60;;;25.77;45.93;95873.47;4991073;28;20029;-49
2022/06/16 18:57:31;;;;;;;4.88;3.95;;;29.90;34.00;;;25.69;46.72;95883.41;4991184;28;20606;-50
2022/06/16 18:59:59;;;;;;;6.50;3.38;;;29.60;34.70;;;25.51;45.92;95876.75;4991016;28;20026;-47
2022/06/16 19:02:38;;;;;;;5.43;3.00;;;29.40;34.90;;;25.34;46.89;95886.88;4989874;28;20159;-49
2022/06/16 19:05:14;;;;;;;8.85;3.92;;;29.20;35.30;;;25.15;45.70;95886.78;4989321;28;20109;-51
2022/06/16 19:07:42;;;;;;;4.10;3.53;;;29.00;35.60;;;24.99;43.21;95875.06;4989811;28;20578;-49